sensor_id;sensor_type;location;lat;lon;timestamp;temperature;humidity
51637;DHT22;37713;53.254;6.460;2023-05-16T00:00:07;8.10;99.90
51637;DHT22;37713;53.254;6.460;2023-05-16T00:02:37;8.10;99.90
51637;DHT22;37713;53.254;6.460;2023-05-16T00:05:04;8.10;99.90
51637;DHT22;37713;53.254;6.460;2023-05-16T00:07:32;8.10;99.90
51637;DHT22;37713;53.254;6.460;2023-05-16T00:09:58;8.10;99.90
51637;DHT22;37713;53.254;6.460;2023-05-16T00:12:24;8.00;99.90
51637;DHT22;37713;53.254;6.460;2023-05-16T00:14:50;8.00;99.90
51637;DHT22;37713;53.254;6.460;2023-05-16T00:17:18;8.00;99.90
51637;DHT22;37713;53.254;6.460;2023-05-16T00:19:45;7.90;99.90
51637;DHT22;37713;53.254;6.460;2023-05-16T00:22:17;7.90;99.90
51637;DHT22;37713;53.254;6.460;2023-05-16T00:24:43;7.90;99.90
51637;DHT22;37713;53.254;6.460;2023-05-16T00:27:09;7.70;99.90
51637;DHT22;37713;53.254;6.460;2023-05-16T00:29:34;7.80;99.90
51637;DHT22;37713;53.254;6.460;2023-05-16T00:32:00;7.70;99.90
51637;DHT22;37713;53.254;6.460;2023-05-16T00:34:26;7.70;99.90
51637;DHT22;37713;53.254;6.460;2023-05-16T00:36:52;7.60;99.90
51637;DHT22;37713;53.254;6.460;2023-05-16T00:39:18;7.60;99.90
51637;DHT22;37713;53.254;6.460;2023-05-16T00:41:45;7.60;99.90
51637;DHT22;37713;53.254;6.460;2023-05-16T00:44:10;7.60;99.90
51637;DHT22;37713;53.254;6.460;2023-05-16T00:46:36;7.60;99.90
51637;DHT22;37713;53.254;6.460;2023-05-16T00:49:03;7.60;99.90
51637;DHT22;37713;53.254;6.460;2023-05-16T00:51:29;7.50;99.90
51637;DHT22;37713;53.254;6.460;2023-05-16T00:53:56;7.50;99.90
51637;DHT22;37713;53.254;6.460;2023-05-16T00:56:22;7.50;99.90
51637;DHT22;37713;53.254;6.460;2023-05-16T00:58:48;7.50;99.90
51637;DHT22;37713;53.254;6.460;2023-05-16T01:01:15;7.50;99.90
51637;DHT22;37713;53.254;6.460;2023-05-16T01:03:42;7.40;99.90
51637;DHT22;37713;53.254;6.460;2023-05-16T01:06:10;7.40;99.90
51637;DHT22;37713;53.254;6.460;2023-05-16T01:08:36;7.40;99.90
51637;DHT22;37713;53.254;6.460;2023-05-16T01:11:24;7.50;99.90
51637;DHT22;37713;53.254;6.460;2023-05-16T01:16:53;7.50;99.90
51637;DHT22;37713;53.254;6.460;2023-05-16T01:25:38;7.60;99.90
51637;DHT22;37713;53.254;6.460;2023-05-16T01:28:12;7.60;99.90
51637;DHT22;37713;53.254;6.460;2023-05-16T01:30:40;7.60;99.90
51637;DHT22;37713;53.254;6.460;2023-05-16T01:33:07;7.70;99.90
51637;DHT22;37713;53.254;6.460;2023-05-16T01:35:34;7.70;99.90
51637;DHT22;37713;53.254;6.460;2023-05-16T01:38:25;7.70;99.90
51637;DHT22;37713;53.254;6.460;2023-05-16T01:40:56;7.70;99.90
51637;DHT22;37713;53.254;6.460;2023-05-16T01:43:45;7.70;99.90
51637;DHT22;37713;53.254;6.460;2023-05-16T01:46:20;7.60;99.90
51637;DHT22;37713;53.254;6.460;2023-05-16T01:51:38;7.60;99.90
51637;DHT22;37713;53.254;6.460;2023-05-16T01:54:10;7.60;99.90
51637;DHT22;37713;53.254;6.460;2023-05-16T01:56:36;7.50;99.90
51637;DHT22;37713;53.254;6.460;2023-05-16T01:59:04;7.50;99.90
51637;DHT22;37713;53.254;6.460;2023-05-16T02:01:30;7.50;99.90
51637;DHT22;37713;53.254;6.460;2023-05-16T02:03:57;7.50;99.90
51637;DHT22;37713;53.254;6.460;2023-05-16T02:06:23;7.40;99.90
51637;DHT22;37713;53.254;6.460;2023-05-16T02:08:50;7.50;99.90
51637;DHT22;37713;53.254;6.460;2023-05-16T02:11:16;7.40;99.90
51637;DHT22;37713;53.254;6.460;2023-05-16T02:13:42;7.50;99.90
51637;DHT22;37713;53.254;6.460;2023-05-16T02:16:10;7.60;99.90
51637;DHT22;37713;53.254;6.460;2023-05-16T02:18:35;7.60;99.90
51637;DHT22;37713;53.254;6.460;2023-05-16T02:21:01;7.70;99.90
51637;DHT22;37713;53.254;6.460;2023-05-16T02:23:27;7.70;99.90
51637;DHT22;37713;53.254;6.460;2023-05-16T02:25:53;7.70;99.90
51637;DHT22;37713;53.254;6.460;2023-05-16T02:28:19;7.80;99.90
51637;DHT22;37713;53.254;6.460;2023-05-16T02:30:44;7.70;99.90
51637;DHT22;37713;53.254;6.460;2023-05-16T02:33:10;7.70;99.90
51637;DHT22;37713;53.254;6.460;2023-05-16T02:35:36;7.70;99.90
51637;DHT22;37713;53.254;6.460;2023-05-16T02:38:02;7.70;99.90
51637;DHT22;37713;53.254;6.460;2023-05-16T02:40:27;7.60;99.90
51637;DHT22;37713;53.254;6.460;2023-05-16T02:42:53;7.60;99.90
51637;DHT22;37713;53.254;6.460;2023-05-16T02:45:19;7.60;99.90
51637;DHT22;37713;53.254;6.460;2023-05-16T02:47:45;7.60;99.90
51637;DHT22;37713;53.254;6.460;2023-05-16T02:50:10;7.60;99.90
51637;DHT22;37713;53.254;6.460;2023-05-16T02:52:36;7.70;99.90
51637;DHT22;37713;53.254;6.460;2023-05-16T02:55:02;7.70;99.90
51637;DHT22;37713;53.254;6.460;2023-05-16T02:57:28;7.70;99.90
51637;DHT22;37713;53.254;6.460;2023-05-16T02:59:54;7.80;99.90
51637;DHT22;37713;53.254;6.460;2023-05-16T03:02:20;7.70;99.90
51637;DHT22;37713;53.254;6.460;2023-05-16T03:04:46;7.70;99.90
51637;DHT22;37713;53.254;6.460;2023-05-16T03:07:12;7.70;99.90
51637;DHT22;37713;53.254;6.460;2023-05-16T03:09:37;7.60;99.90
51637;DHT22;37713;53.254;6.460;2023-05-16T03:12:04;7.60;99.90
51637;DHT22;37713;53.254;6.460;2023-05-16T03:14:29;7.60;99.90
51637;DHT22;37713;53.254;6.460;2023-05-16T03:16:55;7.50;99.90
51637;DHT22;37713;53.254;6.460;2023-05-16T03:19:21;7.50;99.90
51637;DHT22;37713;53.254;6.460;2023-05-16T03:21:47;7.40;99.90
51637;DHT22;37713;53.254;6.460;2023-05-16T03:24:13;7.40;99.90
51637;DHT22;37713;53.254;6.460;2023-05-16T03:26:39;7.30;99.90
51637;DHT22;37713;53.254;6.460;2023-05-16T03:29:04;7.30;99.90
51637;DHT22;37713;53.254;6.460;2023-05-16T03:31:31;7.30;99.90
51637;DHT22;37713;53.254;6.460;2023-05-16T03:33:56;7.30;99.90
51637;DHT22;37713;53.254;6.460;2023-05-16T03:36:22;7.30;99.90
51637;DHT22;37713;53.254;6.460;2023-05-16T03:38:49;7.30;99.90
51637;DHT22;37713;53.254;6.460;2023-05-16T03:41:15;7.30;99.90
51637;DHT22;37713;53.254;6.460;2023-05-16T03:43:40;7.30;99.90
51637;DHT22;37713;53.254;6.460;2023-05-16T03:46:06;7.30;99.90
51637;DHT22;37713;53.254;6.460;2023-05-16T03:48:32;7.20;99.90
51637;DHT22;37713;53.254;6.460;2023-05-16T03:50:58;7.30;99.90
51637;DHT22;37713;53.254;6.460;2023-05-16T03:53:24;7.20;99.90
51637;DHT22;37713;53.254;6.460;2023-05-16T03:55:50;7.20;99.90
51637;DHT22;37713;53.254;6.460;2023-05-16T03:58:16;7.20;99.90
51637;DHT22;37713;53.254;6.460;2023-05-16T04:00:42;7.10;99.90
51637;DHT22;37713;53.254;6.460;2023-05-16T04:03:07;7.10;99.90
51637;DHT22;37713;53.254;6.460;2023-05-16T04:05:33;7.10;99.90
51637;DHT22;37713;53.254;6.460;2023-05-16T04:07:59;7.10;99.90
51637;DHT22;37713;53.254;6.460;2023-05-16T04:10:25;7.10;99.90
51637;DHT22;37713;53.254;6.460;2023-05-16T04:12:51;7.20;99.90
51637;DHT22;37713;53.254;6.460;2023-05-16T04:15:16;7.20;99.90
51637;DHT22;37713;53.254;6.460;2023-05-16T04:17:42;7.20;99.90
51637;DHT22;37713;53.254;6.460;2023-05-16T04:20:08;7.20;99.90
51637;DHT22;37713;53.254;6.460;2023-05-16T04:22:35;7.30;99.90
51637;DHT22;37713;53.254;6.460;2023-05-16T04:25:00;7.30;99.90
51637;DHT22;37713;53.254;6.460;2023-05-16T04:27:26;7.40;99.90
51637;DHT22;37713;53.254;6.460;2023-05-16T04:29:52;7.40;99.90
51637;DHT22;37713;53.254;6.460;2023-05-16T04:32:18;7.40;99.90
51637;DHT22;37713;53.254;6.460;2023-05-16T04:34:44;7.40;99.90
51637;DHT22;37713;53.254;6.460;2023-05-16T04:37:11;7.40;99.90
51637;DHT22;37713;53.254;6.460;2023-05-16T04:39:37;7.50;99.90
51637;DHT22;37713;53.254;6.460;2023-05-16T04:42:03;7.40;99.90
51637;DHT22;37713;53.254;6.460;2023-05-16T04:44:29;7.50;99.90
51637;DHT22;37713;53.254;6.460;2023-05-16T04:46:55;7.50;99.90
51637;DHT22;37713;53.254;6.460;2023-05-16T04:49:21;7.60;99.90
51637;DHT22;37713;53.254;6.460;2023-05-16T04:51:48;7.70;99.90
51637;DHT22;37713;53.254;6.460;2023-05-16T04:54:13;7.70;99.90
51637;DHT22;37713;53.254;6.460;2023-05-16T04:56:40;7.80;99.90
51637;DHT22;37713;53.254;6.460;2023-05-16T04:59:05;7.80;99.90
51637;DHT22;37713;53.254;6.460;2023-05-16T05:01:31;7.90;99.90
51637;DHT22;37713;53.254;6.460;2023-05-16T05:03:57;7.90;99.90
51637;DHT22;37713;53.254;6.460;2023-05-16T05:06:23;8.00;99.90
51637;DHT22;37713;53.254;6.460;2023-05-16T05:08:49;8.00;99.90
51637;DHT22;37713;53.254;6.460;2023-05-16T05:11:14;8.00;99.90
51637;DHT22;37713;53.254;6.460;2023-05-16T05:13:40;8.10;99.90
51637;DHT22;37713;53.254;6.460;2023-05-16T05:16:06;8.10;99.90
51637;DHT22;37713;53.254;6.460;2023-05-16T05:18:32;8.20;99.90
51637;DHT22;37713;53.254;6.460;2023-05-16T05:20:58;8.20;99.90
51637;DHT22;37713;53.254;6.460;2023-05-16T05:23:24;8.30;99.90
51637;DHT22;37713;53.254;6.460;2023-05-16T05:25:50;8.40;99.90
51637;DHT22;37713;53.254;6.460;2023-05-16T05:28:16;8.50;99.90
51637;DHT22;37713;53.254;6.460;2023-05-16T05:30:42;8.60;99.90
51637;DHT22;37713;53.254;6.460;2023-05-16T05:33:10;8.70;99.90
51637;DHT22;37713;53.254;6.460;2023-05-16T05:35:36;8.70;99.90
51637;DHT22;37713;53.254;6.460;2023-05-16T05:38:02;8.70;99.90
51637;DHT22;37713;53.254;6.460;2023-05-16T05:40:28;8.80;99.90
51637;DHT22;37713;53.254;6.460;2023-05-16T05:42:54;8.90;99.90
51637;DHT22;37713;53.254;6.460;2023-05-16T05:45:20;9.00;99.90
51637;DHT22;37713;53.254;6.460;2023-05-16T05:47:46;9.20;99.90
51637;DHT22;37713;53.254;6.460;2023-05-16T05:50:12;9.30;99.90
51637;DHT22;37713;53.254;6.460;2023-05-16T05:52:39;9.50;99.90
51637;DHT22;37713;53.254;6.460;2023-05-16T05:55:05;9.60;99.90
51637;DHT22;37713;53.254;6.460;2023-05-16T05:57:31;9.70;99.90
51637;DHT22;37713;53.254;6.460;2023-05-16T05:59:57;9.80;99.90
51637;DHT22;37713;53.254;6.460;2023-05-16T06:02:22;9.70;99.90
51637;DHT22;37713;53.254;6.460;2023-05-16T06:04:48;9.80;99.90
51637;DHT22;37713;53.254;6.460;2023-05-16T06:07:14;9.80;99.90
51637;DHT22;37713;53.254;6.460;2023-05-16T06:09:41;10.00;99.90
51637;DHT22;37713;53.254;6.460;2023-05-16T06:12:08;10.00;99.90
51637;DHT22;37713;53.254;6.460;2023-05-16T06:14:34;10.20;99.90
51637;DHT22;37713;53.254;6.460;2023-05-16T06:17:00;10.20;99.90
51637;DHT22;37713;53.254;6.460;2023-05-16T06:19:25;10.30;99.90
51637;DHT22;37713;53.254;6.460;2023-05-16T06:21:51;10.30;99.90
51637;DHT22;37713;53.254;6.460;2023-05-16T06:24:17;10.50;99.90
51637;DHT22;37713;53.254;6.460;2023-05-16T06:26:42;10.60;99.90
51637;DHT22;37713;53.254;6.460;2023-05-16T06:29:14;10.90;99.90
51637;DHT22;37713;53.254;6.460;2023-05-16T06:31:39;11.80;99.90
51637;DHT22;37713;53.254;6.460;2023-05-16T06:34:05;13.00;99.90
51637;DHT22;37713;53.254;6.460;2023-05-16T06:36:31;14.10;99.90
51637;DHT22;37713;53.254;6.460;2023-05-16T06:38:57;14.60;99.90
51637;DHT22;37713;53.254;6.460;2023-05-16T06:41:23;14.80;99.90
51637;DHT22;37713;53.254;6.460;2023-05-16T06:43:49;14.90;99.90
51637;DHT22;37713;53.254;6.460;2023-05-16T06:46:14;14.90;99.90
51637;DHT22;37713;53.254;6.460;2023-05-16T06:48:40;14.50;99.90
51637;DHT22;37713;53.254;6.460;2023-05-16T06:51:06;15.00;99.90
51637;DHT22;37713;53.254;6.460;2023-05-16T06:53:32;15.80;99.90
51637;DHT22;37713;53.254;6.460;2023-05-16T06:55:58;16.20;99.90
51637;DHT22;37713;53.254;6.460;2023-05-16T06:58:24;16.60;99.90
51637;DHT22;37713;53.254;6.460;2023-05-16T07:00:50;16.80;99.90
51637;DHT22;37713;53.254;6.460;2023-05-16T07:03:15;17.30;99.90
51637;DHT22;37713;53.254;6.460;2023-05-16T07:05:41;17.80;99.90
51637;DHT22;37713;53.254;6.460;2023-05-16T07:08:10;18.30;99.90
51637;DHT22;37713;53.254;6.460;2023-05-16T07:10:39;18.30;99.90
51637;DHT22;37713;53.254;6.460;2023-05-16T07:13:05;17.90;99.90
51637;DHT22;37713;53.254;6.460;2023-05-16T07:15:31;17.80;99.90
51637;DHT22;37713;53.254;6.460;2023-05-16T07:17:57;17.60;99.90
51637;DHT22;37713;53.254;6.460;2023-05-16T07:20:23;18.00;99.90
51637;DHT22;37713;53.254;6.460;2023-05-16T07:22:49;17.30;99.90
51637;DHT22;37713;53.254;6.460;2023-05-16T07:25:15;16.60;99.90
51637;DHT22;37713;53.254;6.460;2023-05-16T07:27:41;15.80;99.90
51637;DHT22;37713;53.254;6.460;2023-05-16T07:30:10;15.80;99.90
51637;DHT22;37713;53.254;6.460;2023-05-16T07:32:36;15.70;99.90
51637;DHT22;37713;53.254;6.460;2023-05-16T07:35:03;15.50;99.90
51637;DHT22;37713;53.254;6.460;2023-05-16T07:37:29;16.00;99.90
51637;DHT22;37713;53.254;6.460;2023-05-16T07:39:55;16.50;99.90
51637;DHT22;37713;53.254;6.460;2023-05-16T07:42:21;17.10;99.90
51637;DHT22;37713;53.254;6.460;2023-05-16T07:44:46;17.10;99.90
51637;DHT22;37713;53.254;6.460;2023-05-16T07:47:12;17.00;99.90
51637;DHT22;37713;53.254;6.460;2023-05-16T07:49:38;16.70;99.90
51637;DHT22;37713;53.254;6.460;2023-05-16T07:52:04;16.70;99.90
51637;DHT22;37713;53.254;6.460;2023-05-16T07:54:31;16.40;99.90
51637;DHT22;37713;53.254;6.460;2023-05-16T07:56:58;16.70;99.90
51637;DHT22;37713;53.254;6.460;2023-05-16T07:59:24;16.90;99.90
51637;DHT22;37713;53.254;6.460;2023-05-16T08:01:50;16.80;99.90
51637;DHT22;37713;53.254;6.460;2023-05-16T08:04:16;17.10;99.90
51637;DHT22;37713;53.254;6.460;2023-05-16T08:06:41;16.60;99.90
51637;DHT22;37713;53.254;6.460;2023-05-16T08:09:07;15.80;99.90
51637;DHT22;37713;53.254;6.460;2023-05-16T08:11:34;14.80;99.90
51637;DHT22;37713;53.254;6.460;2023-05-16T08:14:00;14.10;99.90
51637;DHT22;37713;53.254;6.460;2023-05-16T08:16:26;14.00;99.90
51637;DHT22;37713;53.254;6.460;2023-05-16T08:18:52;14.50;99.90
51637;DHT22;37713;53.254;6.460;2023-05-16T08:21:18;15.00;99.90
51637;DHT22;37713;53.254;6.460;2023-05-16T08:23:43;15.70;99.90
51637;DHT22;37713;53.254;6.460;2023-05-16T08:26:09;15.70;99.90
51637;DHT22;37713;53.254;6.460;2023-05-16T08:28:35;15.90;99.90
51637;DHT22;37713;53.254;6.460;2023-05-16T08:31:00;16.20;99.90
51637;DHT22;37713;53.254;6.460;2023-05-16T08:33:26;16.30;99.90
51637;DHT22;37713;53.254;6.460;2023-05-16T08:35:52;16.00;99.90
51637;DHT22;37713;53.254;6.460;2023-05-16T08:38:18;15.40;99.90
51637;DHT22;37713;53.254;6.460;2023-05-16T08:40:44;14.90;99.90
51637;DHT22;37713;53.254;6.460;2023-05-16T08:43:10;14.80;99.90
51637;DHT22;37713;53.254;6.460;2023-05-16T08:45:36;14.60;99.90
51637;DHT22;37713;53.254;6.460;2023-05-16T08:48:04;14.90;99.90
51637;DHT22;37713;53.254;6.460;2023-05-16T08:50:31;15.50;99.90
51637;DHT22;37713;53.254;6.460;2023-05-16T08:52:57;15.60;99.90
51637;DHT22;37713;53.254;6.460;2023-05-16T08:55:29;15.60;99.90
51637;DHT22;37713;53.254;6.460;2023-05-16T08:57:56;15.70;99.90
51637;DHT22;37713;53.254;6.460;2023-05-16T09:00:23;15.70;99.90
51637;DHT22;37713;53.254;6.460;2023-05-16T09:02:49;15.20;99.90
51637;DHT22;37713;53.254;6.460;2023-05-16T09:05:16;15.10;99.90
51637;DHT22;37713;53.254;6.460;2023-05-16T09:07:43;14.80;99.90
51637;DHT22;37713;53.254;6.460;2023-05-16T09:10:10;14.50;99.90
51637;DHT22;37713;53.254;6.460;2023-05-16T09:12:38;14.10;99.90
51637;DHT22;37713;53.254;6.460;2023-05-16T09:15:05;14.20;99.90
51637;DHT22;37713;53.254;6.460;2023-05-16T09:20:13;14.30;99.90
51637;DHT22;37713;53.254;6.460;2023-05-16T09:22:40;14.10;99.90
51637;DHT22;37713;53.254;6.460;2023-05-16T09:25:16;13.80;99.90
51637;DHT22;37713;53.254;6.460;2023-05-16T09:27:42;13.70;99.90
51637;DHT22;37713;53.254;6.460;2023-05-16T09:30:08;13.20;99.90
51637;DHT22;37713;53.254;6.460;2023-05-16T09:32:34;13.00;99.90
51637;DHT22;37713;53.254;6.460;2023-05-16T09:35:00;13.20;99.90
51637;DHT22;37713;53.254;6.460;2023-05-16T09:37:25;13.40;99.90
51637;DHT22;37713;53.254;6.460;2023-05-16T09:39:53;13.60;99.90
51637;DHT22;37713;53.254;6.460;2023-05-16T09:42:22;13.90;99.90
51637;DHT22;37713;53.254;6.460;2023-05-16T09:44:53;14.30;99.90
51637;DHT22;37713;53.254;6.460;2023-05-16T09:47:20;14.10;99.90
51637;DHT22;37713;53.254;6.460;2023-05-16T09:49:50;13.80;99.90
51637;DHT22;37713;53.254;6.460;2023-05-16T09:52:16;13.50;99.90
51637;DHT22;37713;53.254;6.460;2023-05-16T09:54:43;13.70;99.90
51637;DHT22;37713;53.254;6.460;2023-05-16T09:57:10;14.00;99.90
51637;DHT22;37713;53.254;6.460;2023-05-16T09:59:39;14.20;99.90
51637;DHT22;37713;53.254;6.460;2023-05-16T10:02:06;14.10;99.90
51637;DHT22;37713;53.254;6.460;2023-05-16T10:04:35;14.30;99.90
51637;DHT22;37713;53.254;6.460;2023-05-16T10:07:02;14.30;99.90
51637;DHT22;37713;53.254;6.460;2023-05-16T10:09:31;14.10;99.90
51637;DHT22;37713;53.254;6.460;2023-05-16T10:12:00;13.80;99.90
51637;DHT22;37713;53.254;6.460;2023-05-16T10:14:33;13.90;99.90
51637;DHT22;37713;53.254;6.460;2023-05-16T10:16:59;13.90;99.90
51637;DHT22;37713;53.254;6.460;2023-05-16T10:19:26;13.90;99.90
51637;DHT22;37713;53.254;6.460;2023-05-16T10:21:56;14.10;99.90
51637;DHT22;37713;53.254;6.460;2023-05-16T10:24:30;14.30;99.90
51637;DHT22;37713;53.254;6.460;2023-05-16T10:26:58;14.40;99.90
51637;DHT22;37713;53.254;6.460;2023-05-16T10:29:24;14.30;99.90
51637;DHT22;37713;53.254;6.460;2023-05-16T10:31:51;14.20;99.90
51637;DHT22;37713;53.254;6.460;2023-05-16T10:34:17;14.10;99.90
51637;DHT22;37713;53.254;6.460;2023-05-16T10:36:44;14.20;99.90
51637;DHT22;37713;53.254;6.460;2023-05-16T10:39:11;14.20;99.90
51637;DHT22;37713;53.254;6.460;2023-05-16T10:41:37;14.10;99.90
51637;DHT22;37713;53.254;6.460;2023-05-16T10:44:06;14.20;99.90
51637;DHT22;37713;53.254;6.460;2023-05-16T10:46:37;14.20;99.90
51637;DHT22;37713;53.254;6.460;2023-05-16T10:49:22;14.20;99.90
51637;DHT22;37713;53.254;6.460;2023-05-16T10:52:09;14.10;99.90
51637;DHT22;37713;53.254;6.460;2023-05-16T10:54:39;13.80;99.90
51637;DHT22;37713;53.254;6.460;2023-05-16T10:57:06;13.80;99.90
51637;DHT22;37713;53.254;6.460;2023-05-16T10:59:43;13.80;99.90
51637;DHT22;37713;53.254;6.460;2023-05-16T11:02:32;13.80;99.90
51637;DHT22;37713;53.254;6.460;2023-05-16T11:05:00;13.70;99.90
51637;DHT22;37713;53.254;6.460;2023-05-16T11:07:32;13.90;99.90
51637;DHT22;37713;53.254;6.460;2023-05-16T11:10:04;14.30;99.90
51637;DHT22;37713;53.254;6.460;2023-05-16T11:12:42;14.50;99.90
51637;DHT22;37713;53.254;6.460;2023-05-16T11:15:23;14.50;99.90
51637;DHT22;37713;53.254;6.460;2023-05-16T11:18:02;14.70;99.90
51637;DHT22;37713;53.254;6.460;2023-05-16T11:20:33;14.90;99.90
51637;DHT22;37713;53.254;6.460;2023-05-16T11:25:55;14.70;99.90
51637;DHT22;37713;53.254;6.460;2023-05-16T11:28:23;14.40;99.90
51637;DHT22;37713;53.254;6.460;2023-05-16T11:30:51;14.30;99.90
51637;DHT22;37713;53.254;6.460;2023-05-16T11:33:20;14.10;99.90
51637;DHT22;37713;53.254;6.460;2023-05-16T11:36:05;14.00;99.90
51637;DHT22;37713;53.254;6.460;2023-05-16T11:38:33;14.10;99.90
51637;DHT22;37713;53.254;6.460;2023-05-16T11:41:06;14.20;99.90
51637;DHT22;37713;53.254;6.460;2023-05-16T11:43:43;14.20;99.90
51637;DHT22;37713;53.254;6.460;2023-05-16T11:46:13;14.40;99.90
51637;DHT22;37713;53.254;6.460;2023-05-16T11:48:40;14.60;99.90
51637;DHT22;37713;53.254;6.460;2023-05-16T11:51:08;14.70;99.90
51637;DHT22;37713;53.254;6.460;2023-05-16T11:53:34;14.60;99.90
51637;DHT22;37713;53.254;6.460;2023-05-16T11:56:00;14.70;99.90
51637;DHT22;37713;53.254;6.460;2023-05-16T11:58:27;14.90;99.90
51637;DHT22;37713;53.254;6.460;2023-05-16T12:00:53;14.90;99.90
51637;DHT22;37713;53.254;6.460;2023-05-16T12:03:19;15.00;99.90
51637;DHT22;37713;53.254;6.460;2023-05-16T12:05:52;15.10;99.90
51637;DHT22;37713;53.254;6.460;2023-05-16T12:08:22;15.00;99.90
51637;DHT22;37713;53.254;6.460;2023-05-16T12:10:51;15.00;99.90
51637;DHT22;37713;53.254;6.460;2023-05-16T12:13:19;15.00;99.90
51637;DHT22;37713;53.254;6.460;2023-05-16T12:15:45;14.60;99.90
51637;DHT22;37713;53.254;6.460;2023-05-16T12:18:11;14.50;99.90
51637;DHT22;37713;53.254;6.460;2023-05-16T12:20:37;14.40;99.90
51637;DHT22;37713;53.254;6.460;2023-05-16T12:23:04;14.50;99.90
51637;DHT22;37713;53.254;6.460;2023-05-16T12:25:34;14.50;99.90
51637;DHT22;37713;53.254;6.460;2023-05-16T12:28:03;14.60;99.90
51637;DHT22;37713;53.254;6.460;2023-05-16T12:30:31;14.60;99.90
51637;DHT22;37713;53.254;6.460;2023-05-16T12:35:36;14.60;99.90
51637;DHT22;37713;53.254;6.460;2023-05-16T12:38:09;14.30;99.90
51637;DHT22;37713;53.254;6.460;2023-05-16T12:40:36;13.80;99.90
51637;DHT22;37713;53.254;6.460;2023-05-16T12:43:04;13.30;99.90
51637;DHT22;37713;53.254;6.460;2023-05-16T12:45:37;13.00;99.90
51637;DHT22;37713;53.254;6.460;2023-05-16T12:48:11;12.90;99.90
51637;DHT22;37713;53.254;6.460;2023-05-16T12:50:39;12.80;99.90
51637;DHT22;37713;53.254;6.460;2023-05-16T12:53:10;12.70;99.90
51637;DHT22;37713;53.254;6.460;2023-05-16T12:55:37;12.70;99.90
51637;DHT22;37713;53.254;6.460;2023-05-16T12:58:03;12.90;99.90
51637;DHT22;37713;53.254;6.460;2023-05-16T13:00:29;13.20;99.90
51637;DHT22;37713;53.254;6.460;2023-05-16T13:02:56;13.30;99.90
51637;DHT22;37713;53.254;6.460;2023-05-16T13:05:22;13.30;99.90
51637;DHT22;37713;53.254;6.460;2023-05-16T13:07:48;13.50;99.90
51637;DHT22;37713;53.254;6.460;2023-05-16T13:10:17;13.60;99.90
51637;DHT22;37713;53.254;6.460;2023-05-16T13:12:43;13.90;99.90
51637;DHT22;37713;53.254;6.460;2023-05-16T13:15:10;13.90;99.90
51637;DHT22;37713;53.254;6.460;2023-05-16T13:17:37;14.00;99.90
51637;DHT22;37713;53.254;6.460;2023-05-16T13:20:05;13.80;99.90
51637;DHT22;37713;53.254;6.460;2023-05-16T13:22:41;13.70;99.90
51637;DHT22;37713;53.254;6.460;2023-05-16T13:25:09;13.60;99.90
51637;DHT22;37713;53.254;6.460;2023-05-16T13:27:35;13.50;99.90
51637;DHT22;37713;53.254;6.460;2023-05-16T13:30:01;13.40;99.90
51637;DHT22;37713;53.254;6.460;2023-05-16T13:32:28;13.10;99.90
51637;DHT22;37713;53.254;6.460;2023-05-16T13:34:54;13.00;99.90
51637;DHT22;37713;53.254;6.460;2023-05-16T13:37:20;13.00;99.90
51637;DHT22;37713;53.254;6.460;2023-05-16T13:39:48;13.00;99.90
51637;DHT22;37713;53.254;6.460;2023-05-16T13:42:15;12.90;99.90
51637;DHT22;37713;53.254;6.460;2023-05-16T13:44:40;12.80;99.90
51637;DHT22;37713;53.254;6.460;2023-05-16T13:47:07;12.70;99.90
51637;DHT22;37713;53.254;6.460;2023-05-16T13:49:33;12.90;99.90
51637;DHT22;37713;53.254;6.460;2023-05-16T13:51:59;13.00;99.90
51637;DHT22;37713;53.254;6.460;2023-05-16T13:54:26;13.10;99.90
51637;DHT22;37713;53.254;6.460;2023-05-16T13:56:52;13.10;99.90
51637;DHT22;37713;53.254;6.460;2023-05-16T13:59:18;13.00;99.90
51637;DHT22;37713;53.254;6.460;2023-05-16T14:01:44;13.10;99.90
51637;DHT22;37713;53.254;6.460;2023-05-16T14:04:09;13.00;99.90
51637;DHT22;37713;53.254;6.460;2023-05-16T14:06:35;13.10;99.90
51637;DHT22;37713;53.254;6.460;2023-05-16T14:09:02;12.90;99.90
51637;DHT22;37713;53.254;6.460;2023-05-16T14:11:28;12.90;99.90
51637;DHT22;37713;53.254;6.460;2023-05-16T14:13:54;13.00;99.90
51637;DHT22;37713;53.254;6.460;2023-05-16T14:16:20;12.90;99.90
51637;DHT22;37713;53.254;6.460;2023-05-16T14:18:46;12.90;99.90
51637;DHT22;37713;53.254;6.460;2023-05-16T14:21:12;12.80;99.90
51637;DHT22;37713;53.254;6.460;2023-05-16T14:23:38;12.70;99.90
51637;DHT22;37713;53.254;6.460;2023-05-16T14:26:04;12.60;99.90
51637;DHT22;37713;53.254;6.460;2023-05-16T14:28:30;12.60;99.90
51637;DHT22;37713;53.254;6.460;2023-05-16T14:30:58;12.50;99.90
51637;DHT22;37713;53.254;6.460;2023-05-16T14:33:24;12.20;99.90
51637;DHT22;37713;53.254;6.460;2023-05-16T14:35:51;12.00;99.90
51637;DHT22;37713;53.254;6.460;2023-05-16T14:38:17;12.00;99.90
51637;DHT22;37713;53.254;6.460;2023-05-16T14:40:43;12.00;99.90
51637;DHT22;37713;53.254;6.460;2023-05-16T14:43:08;12.10;99.90
51637;DHT22;37713;53.254;6.460;2023-05-16T14:45:34;12.20;99.90
51637;DHT22;37713;53.254;6.460;2023-05-16T14:48:00;12.30;99.90
51637;DHT22;37713;53.254;6.460;2023-05-16T14:50:26;12.40;99.90
51637;DHT22;37713;53.254;6.460;2023-05-16T14:52:52;12.60;99.90
51637;DHT22;37713;53.254;6.460;2023-05-16T14:55:19;12.60;99.90
51637;DHT22;37713;53.254;6.460;2023-05-16T14:57:45;12.60;99.90
51637;DHT22;37713;53.254;6.460;2023-05-16T15:00:13;12.60;99.90
51637;DHT22;37713;53.254;6.460;2023-05-16T15:02:39;12.50;99.90
51637;DHT22;37713;53.254;6.460;2023-05-16T15:05:05;12.50;99.90
51637;DHT22;37713;53.254;6.460;2023-05-16T15:07:31;12.60;99.90
51637;DHT22;37713;53.254;6.460;2023-05-16T15:09:57;12.50;99.90
51637;DHT22;37713;53.254;6.460;2023-05-16T15:12:23;12.70;99.90
51637;DHT22;37713;53.254;6.460;2023-05-16T15:14:48;12.80;99.90
51637;DHT22;37713;53.254;6.460;2023-05-16T15:17:14;12.90;99.90
51637;DHT22;37713;53.254;6.460;2023-05-16T15:19:40;12.90;99.90
51637;DHT22;37713;53.254;6.460;2023-05-16T15:22:06;12.90;99.90
51637;DHT22;37713;53.254;6.460;2023-05-16T15:24:33;12.90;99.90
51637;DHT22;37713;53.254;6.460;2023-05-16T15:26:59;12.80;99.90
51637;DHT22;37713;53.254;6.460;2023-05-16T15:29:26;12.80;99.90
51637;DHT22;37713;53.254;6.460;2023-05-16T15:31:52;12.80;99.90
51637;DHT22;37713;53.254;6.460;2023-05-16T15:34:17;12.80;99.90
51637;DHT22;37713;53.254;6.460;2023-05-16T15:36:43;12.70;99.90
51637;DHT22;37713;53.254;6.460;2023-05-16T15:39:09;12.70;99.90
51637;DHT22;37713;53.254;6.460;2023-05-16T15:41:35;12.50;99.90
51637;DHT22;37713;53.254;6.460;2023-05-16T15:44:01;12.50;99.90
51637;DHT22;37713;53.254;6.460;2023-05-16T15:46:26;12.50;99.90
51637;DHT22;37713;53.254;6.460;2023-05-16T15:48:54;12.50;99.90
51637;DHT22;37713;53.254;6.460;2023-05-16T15:51:20;12.50;99.90
51637;DHT22;37713;53.254;6.460;2023-05-16T15:53:46;12.50;99.90
51637;DHT22;37713;53.254;6.460;2023-05-16T15:56:12;12.60;99.90